sensor_id;sensor_type;location;lat;lon;timestamp;P1;durP1;ratioP1;P2;durP2;ratioP2
6928;SDS011;3504;52.616;13.238;2023-10-09T00:05:17;4.90;;;3.60;;
6928;SDS011;3504;52.616;13.238;2023-10-09T00:10:24;5.40;;;3.83;;
6928;SDS011;3504;52.616;13.238;2023-10-09T00:15:35;6.00;;;3.67;;
6928;SDS011;3504;52.616;13.238;2023-10-09T00:20:36;6.03;;;3.60;;
6928;SDS011;3504;52.616;13.238;2023-10-09T00:25:49;7.30;;;3.53;;
6928;SDS011;3504;52.616;13.238;2023-10-09T00:31:08;4.43;;;3.70;;
6928;SDS011;3504;52.616;13.238;2023-10-09T00:36:14;7.77;;;4.33;;
6928;SDS011;3504;52.616;13.238;2023-10-09T00:41:19;7.77;;;3.60;;
6928;SDS011;3504;52.616;13.238;2023-10-09T00:46:21;6.37;;;3.83;;
6928;SDS011;3504;52.616;13.238;2023-10-09T00:51:22;6.00;;;3.60;;
6928;SDS011;3504;52.616;13.238;2023-10-09T00:56:26;7.60;;;3.67;;
6928;SDS011;3504;52.616;13.238;2023-10-09T01:01:27;6.00;;;3.50;;
6928;SDS011;3504;52.616;13.238;2023-10-09T01:06:37;4.90;;;3.23;;
6928;SDS011;3504;52.616;13.238;2023-10-09T01:11:44;4.00;;;3.53;;
6928;SDS011;3504;52.616;13.238;2023-10-09T01:16:48;9.40;;;3.50;;
6928;SDS011;3504;52.616;13.238;2023-10-09T01:21:51;5.03;;;3.70;;
6928;SDS011;3504;52.616;13.238;2023-10-09T01:26:52;4.90;;;3.57;;
6928;SDS011;3504;52.616;13.238;2023-10-09T01:31:55;5.23;;;3.40;;
6928;SDS011;3504;52.616;13.238;2023-10-09T01:36:56;6.60;;;4.30;;
6928;SDS011;3504;52.616;13.238;2023-10-09T01:42:05;6.83;;;4.13;;
6928;SDS011;3504;52.616;13.238;2023-10-09T01:47:09;6.53;;;4.20;;
6928;SDS011;3504;52.616;13.238;2023-10-09T01:52:14;7.67;;;4.17;;
6928;SDS011;3504;52.616;13.238;2023-10-09T01:57:21;8.13;;;4.20;;
6928;SDS011;3504;52.616;13.238;2023-10-09T02:02:25;12.73;;;4.50;;
6928;SDS011;3504;52.616;13.238;2023-10-09T02:07:26;6.07;;;4.23;;
6928;SDS011;3504;52.616;13.238;2023-10-09T02:12:41;6.70;;;4.10;;
6928;SDS011;3504;52.616;13.238;2023-10-09T02:17:42;4.77;;;3.83;;
6928;SDS011;3504;52.616;13.238;2023-10-09T02:23:01;5.00;;;3.77;;
6928;SDS011;3504;52.616;13.238;2023-10-09T02:28:01;5.87;;;4.43;;
6928;SDS011;3504;52.616;13.238;2023-10-09T02:33:05;9.77;;;4.50;;
6928;SDS011;3504;52.616;13.238;2023-10-09T02:38:09;7.90;;;4.27;;
6928;SDS011;3504;52.616;13.238;2023-10-09T02:43:14;9.63;;;4.50;;
6928;SDS011;3504;52.616;13.238;2023-10-09T02:48:18;7.43;;;4.53;;
6928;SDS011;3504;52.616;13.238;2023-10-09T02:53:20;6.63;;;4.97;;
6928;SDS011;3504;52.616;13.238;2023-10-09T02:58:29;6.50;;;4.60;;
6928;SDS011;3504;52.616;13.238;2023-10-09T03:03:32;11.27;;;4.80;;
6928;SDS011;3504;52.616;13.238;2023-10-09T03:08:35;7.60;;;4.73;;
6928;SDS011;3504;52.616;13.238;2023-10-09T03:13:37;6.67;;;4.33;;
6928;SDS011;3504;52.616;13.238;2023-10-09T03:18:37;8.20;;;4.43;;
6928;SDS011;3504;52.616;13.238;2023-10-09T03:23:38;5.70;;;4.30;;
6928;SDS011;3504;52.616;13.238;2023-10-09T03:28:38;9.33;;;4.93;;
6928;SDS011;3504;52.616;13.238;2023-10-09T03:33:43;7.20;;;3.93;;
6928;SDS011;3504;52.616;13.238;2023-10-09T03:38:43;6.97;;;4.93;;
6928;SDS011;3504;52.616;13.238;2023-10-09T03:43:44;9.83;;;5.10;;
6928;SDS011;3504;52.616;13.238;2023-10-09T03:48:49;6.63;;;4.73;;
6928;SDS011;3504;52.616;13.238;2023-10-09T03:53:56;6.30;;;4.70;;
6928;SDS011;3504;52.616;13.238;2023-10-09T03:58:57;6.60;;;4.53;;
6928;SDS011;3504;52.616;13.238;2023-10-09T04:03:58;9.10;;;4.93;;
6928;SDS011;3504;52.616;13.238;2023-10-09T04:09:01;12.03;;;5.20;;
6928;SDS011;3504;52.616;13.238;2023-10-09T04:14:34;11.53;;;5.47;;
6928;SDS011;3504;52.616;13.238;2023-10-09T04:19:35;9.40;;;6.33;;
6928;SDS011;3504;52.616;13.238;2023-10-09T04:24:48;7.83;;;6.20;;
6928;SDS011;3504;52.616;13.238;2023-10-09T04:29:51;11.07;;;5.97;;
6928;SDS011;3504;52.616;13.238;2023-10-09T04:34:54;9.57;;;6.40;;
6928;SDS011;3504;52.616;13.238;2023-10-09T04:40:18;8.17;;;6.43;;
6928;SDS011;3504;52.616;13.238;2023-10-09T04:45:41;6.63;;;5.53;;
6928;SDS011;3504;52.616;13.238;2023-10-09T04:50:44;8.83;;;6.20;;
6928;SDS011;3504;52.616;13.238;2023-10-09T04:56:08;9.33;;;6.83;;
6928;SDS011;3504;52.616;13.238;2023-10-09T05:01:15;9.33;;;6.60;;
6928;SDS011;3504;52.616;13.238;2023-10-09T05:06:22;9.03;;;7.40;;
6928;SDS011;3504;52.616;13.238;2023-10-09T05:11:42;9.87;;;6.90;;
6928;SDS011;3504;52.616;13.238;2023-10-09T05:16:52;9.23;;;7.33;;
6928;SDS011;3504;52.616;13.238;2023-10-09T05:21:54;9.33;;;7.30;;
6928;SDS011;3504;52.616;13.238;2023-10-09T05:26:58;10.37;;;7.60;;
6928;SDS011;3504;52.616;13.238;2023-10-09T05:32:17;12.43;;;7.93;;
6928;SDS011;3504;52.616;13.238;2023-10-09T05:37:31;9.70;;;7.03;;
6928;SDS011;3504;52.616;13.238;2023-10-09T05:42:33;10.73;;;7.47;;
6928;SDS011;3504;52.616;13.238;2023-10-09T05:47:41;9.10;;;7.70;;
6928;SDS011;3504;52.616;13.238;2023-10-09T05:52:57;10.43;;;7.53;;
6928;SDS011;3504;52.616;13.238;2023-10-09T05:58:02;11.03;;;7.93;;
6928;SDS011;3504;52.616;13.238;2023-10-09T06:03:21;12.60;;;8.57;;
6928;SDS011;3504;52.616;13.238;2023-10-09T06:08:26;9.43;;;8.07;;
6928;SDS011;3504;52.616;13.238;2023-10-09T06:13:47;10.33;;;7.93;;
6928;SDS011;3504;52.616;13.238;2023-10-09T06:18:48;11.43;;;8.77;;
6928;SDS011;3504;52.616;13.238;2023-10-09T06:24:07;11.17;;;8.30;;
6928;SDS011;3504;52.616;13.238;2023-10-09T06:29:09;11.10;;;7.80;;
6928;SDS011;3504;52.616;13.238;2023-10-09T06:34:17;11.30;;;8.47;;
6928;SDS011;3504;52.616;13.238;2023-10-09T06:39:18;10.00;;;8.43;;
6928;SDS011;3504;52.616;13.238;2023-10-09T06:44:37;10.53;;;7.33;;
6928;SDS011;3504;52.616;13.238;2023-10-09T06:49:53;11.20;;;7.90;;
6928;SDS011;3504;52.616;13.238;2023-10-09T06:55:12;11.23;;;7.33;;
6928;SDS011;3504;52.616;13.238;2023-10-09T07:00:19;8.70;;;7.17;;
6928;SDS011;3504;52.616;13.238;2023-10-09T07:05:39;11.03;;;7.90;;
6928;SDS011;3504;52.616;13.238;2023-10-09T07:11:05;10.07;;;7.80;;
6928;SDS011;3504;52.616;13.238;2023-10-09T07:16:24;9.50;;;7.27;;
6928;SDS011;3504;52.616;13.238;2023-10-09T07:21:28;8.77;;;7.33;;
6928;SDS011;3504;52.616;13.238;2023-10-09T07:26:29;10.23;;;7.33;;
6928;SDS011;3504;52.616;13.238;2023-10-09T07:31:48;8.27;;;6.27;;
6928;SDS011;3504;52.616;13.238;2023-10-09T07:36:57;8.20;;;6.80;;
6928;SDS011;3504;52.616;13.238;2023-10-09T07:42:04;9.33;;;7.10;;
6928;SDS011;3504;52.616;13.238;2023-10-09T07:47:26;8.77;;;6.33;;
6928;SDS011;3504;52.616;13.238;2023-10-09T07:52:57;8.77;;;6.50;;
6928;SDS011;3504;52.616;13.238;2023-10-09T07:58:14;9.43;;;6.03;;
6928;SDS011;3504;52.616;13.238;2023-10-09T08:03:16;8.20;;;5.87;;
6928;SDS011;3504;52.616;13.238;2023-10-09T08:08:23;10.57;;;6.20;;
6928;SDS011;3504;52.616;13.238;2023-10-09T08:13:33;9.57;;;6.03;;
6928;SDS011;3504;52.616;13.238;2023-10-09T08:18:49;8.33;;;6.67;;
6928;SDS011;3504;52.616;13.238;2023-10-09T08:23:51;9.57;;;6.93;;
6928;SDS011;3504;52.616;13.238;2023-10-09T08:28:52;10.77;;;6.80;;
6928;SDS011;3504;52.616;13.238;2023-10-09T08:33:54;12.33;;;6.97;;
6928;SDS011;3504;52.616;13.238;2023-10-09T08:38:57;10.10;;;7.03;;
6928;SDS011;3504;52.616;13.238;2023-10-09T08:43:59;10.33;;;7.07;;
6928;SDS011;3504;52.616;13.238;2023-10-09T08:49:01;9.77;;;7.00;;
6928;SDS011;3504;52.616;13.238;2023-10-09T08:54:08;10.87;;;7.87;;
6928;SDS011;3504;52.616;13.238;2023-10-09T08:59:11;10.10;;;7.53;;
6928;SDS011;3504;52.616;13.238;2023-10-09T09:04:12;10.00;;;7.37;;
6928;SDS011;3504;52.616;13.238;2023-10-09T09:09:38;11.37;;;7.30;;
6928;SDS011;3504;52.616;13.238;2023-10-09T09:14:57;12.80;;;7.40;;
6928;SDS011;3504;52.616;13.238;2023-10-09T09:19:58;9.60;;;7.57;;
6928;SDS011;3504;52.616;13.238;2023-10-09T09:24:59;9.17;;;7.63;;
6928;SDS011;3504;52.616;13.238;2023-10-09T09:30:18;9.67;;;7.00;;
6928;SDS011;3504;52.616;13.238;2023-10-09T09:35:31;11.67;;;7.50;;
6928;SDS011;3504;52.616;13.238;2023-10-09T09:40:32;10.33;;;7.20;;
6928;SDS011;3504;52.616;13.238;2023-10-09T09:45:41;10.93;;;7.90;;
6928;SDS011;3504;52.616;13.238;2023-10-09T09:50:47;9.17;;;7.93;;
6928;SDS011;3504;52.616;13.238;2023-10-09T09:55:51;11.00;;;8.30;;
6928;SDS011;3504;52.616;13.238;2023-10-09T10:00:59;14.83;;;10.40;;
6928;SDS011;3504;52.616;13.238;2023-10-09T10:06:14;11.77;;;9.63;;
6928;SDS011;3504;52.616;13.238;2023-10-09T10:17:01;11.63;;;9.53;;
6928;SDS011;3504;52.616;13.238;2023-10-09T10:22:23;9.80;;;8.80;;
6928;SDS011;3504;52.616;13.238;2023-10-09T10:27:27;10.07;;;8.53;;
6928;SDS011;3504;52.616;13.238;2023-10-09T10:32:47;11.63;;;8.33;;
6928;SDS011;3504;52.616;13.238;2023-10-09T10:37:52;10.10;;;8.50;;
6928;SDS011;3504;52.616;13.238;2023-10-09T10:43:03;12.00;;;10.30;;
6928;SDS011;3504;52.616;13.238;2023-10-09T10:48:10;10.83;;;8.13;;
6928;SDS011;3504;52.616;13.238;2023-10-09T10:53:23;13.20;;;8.10;;
6928;SDS011;3504;52.616;13.238;2023-10-09T10:58:27;10.30;;;8.50;;
6928;SDS011;3504;52.616;13.238;2023-10-09T11:03:47;13.90;;;8.20;;
6928;SDS011;3504;52.616;13.238;2023-10-09T11:08:54;10.80;;;9.30;;
6928;SDS011;3504;52.616;13.238;2023-10-09T11:13:54;12.73;;;8.77;;
6928;SDS011;3504;52.616;13.238;2023-10-09T11:19:26;10.20;;;7.20;;
6928;SDS011;3504;52.616;13.238;2023-10-09T11:24:27;9.53;;;6.83;;
6928;SDS011;3504;52.616;13.238;2023-10-09T11:29:33;9.53;;;7.23;;
6928;SDS011;3504;52.616;13.238;2023-10-09T11:34:48;11.90;;;6.87;;
6928;SDS011;3504;52.616;13.238;2023-10-09T11:39:53;8.63;;;6.93;;
6928;SDS011;3504;52.616;13.238;2023-10-09T11:44:55;8.30;;;7.20;;
6928;SDS011;3504;52.616;13.238;2023-10-09T11:49:56;8.57;;;6.80;;
6928;SDS011;3504;52.616;13.238;2023-10-09T11:55:04;7.70;;;6.13;;
6928;SDS011;3504;52.616;13.238;2023-10-09T12:00:07;8.43;;;6.77;;
6928;SDS011;3504;52.616;13.238;2023-10-09T12:05:24;7.73;;;6.43;;
6928;SDS011;3504;52.616;13.238;2023-10-09T12:10:27;7.60;;;6.47;;
6928;SDS011;3504;52.616;13.238;2023-10-09T12:15:30;8.00;;;6.90;;
6928;SDS011;3504;52.616;13.238;2023-10-09T12:20:37;7.70;;;6.90;;
6928;SDS011;3504;52.616;13.238;2023-10-09T12:25:39;9.80;;;7.80;;
6928;SDS011;3504;52.616;13.238;2023-10-09T12:30:39;8.67;;;7.73;;
6928;SDS011;3504;52.616;13.238;2023-10-09T12:35:41;10.43;;;8.20;;
6928;SDS011;3504;52.616;13.238;2023-10-09T12:40:42;10.33;;;8.73;;
6928;SDS011;3504;52.616;13.238;2023-10-09T12:45:50;13.23;;;9.57;;
6928;SDS011;3504;52.616;13.238;2023-10-09T12:50:51;9.83;;;8.80;;
6928;SDS011;3504;52.616;13.238;2023-10-09T12:55:53;9.63;;;8.10;;
6928;SDS011;3504;52.616;13.238;2023-10-09T13:00:56;10.30;;;8.40;;
6928;SDS011;3504;52.616;13.238;2023-10-09T13:06:09;11.10;;;8.93;;
6928;SDS011;3504;52.616;13.238;2023-10-09T13:11:13;11.60;;;10.20;;
6928;SDS011;3504;52.616;13.238;2023-10-09T13:16:17;14.67;;;9.73;;
6928;SDS011;3504;52.616;13.238;2023-10-09T13:21:25;12.30;;;9.63;;
6928;SDS011;3504;52.616;13.238;2023-10-09T13:26:31;12.60;;;9.07;;
6928;SDS011;3504;52.616;13.238;2023-10-09T13:31:35;11.67;;;9.27;;
6928;SDS011;3504;52.616;13.238;2023-10-09T13:36:37;11.70;;;9.27;;
6928;SDS011;3504;52.616;13.238;2023-10-09T13:41:38;11.20;;;9.23;;
6928;SDS011;3504;52.616;13.238;2023-10-09T13:46:42;11.37;;;9.93;;
6928;SDS011;3504;52.616;13.238;2023-10-09T13:51:43;11.10;;;9.33;;
6928;SDS011;3504;52.616;13.238;2023-10-09T13:56:43;16.97;;;9.87;;
6928;SDS011;3504;52.616;13.238;2023-10-09T14:01:44;13.73;;;10.13;;
6928;SDS011;3504;52.616;13.238;2023-10-09T14:06:47;12.50;;;9.33;;
6928;SDS011;3504;52.616;13.238;2023-10-09T14:11:48;10.93;;;9.40;;
6928;SDS011;3504;52.616;13.238;2023-10-09T14:16:52;12.63;;;10.90;;
6928;SDS011;3504;52.616;13.238;2023-10-09T14:21:57;14.93;;;12.10;;
6928;SDS011;3504;52.616;13.238;2023-10-09T14:26:57;15.57;;;11.80;;
6928;SDS011;3504;52.616;13.238;2023-10-09T14:32:06;14.53;;;11.47;;
6928;SDS011;3504;52.616;13.238;2023-10-09T14:37:06;12.70;;;11.37;;
6928;SDS011;3504;52.616;13.238;2023-10-09T14:42:10;15.70;;;11.17;;
6928;SDS011;3504;52.616;13.238;2023-10-09T14:47:11;15.53;;;11.07;;
6928;SDS011;3504;52.616;13.238;2023-10-09T14:52:14;17.57;;;11.70;;
6928;SDS011;3504;52.616;13.238;2023-10-09T14:57:20;13.63;;;11.10;;
6928;SDS011;3504;52.616;13.238;2023-10-09T15:02:20;14.77;;;11.20;;
6928;SDS011;3504;52.616;13.238;2023-10-09T15:07:23;13.20;;;11.33;;
6928;SDS011;3504;52.616;13.238;2023-10-09T15:12:24;13.20;;;11.80;;
6928;SDS011;3504;52.616;13.238;2023-10-09T15:17:25;14.17;;;11.70;;
6928;SDS011;3504;52.616;13.238;2023-10-09T15:22:26;13.97;;;12.23;;
6928;SDS011;3504;52.616;13.238;2023-10-09T15:27:34;16.67;;;13.47;;
6928;SDS011;3504;52.616;13.238;2023-10-09T15:32:34;16.60;;;12.57;;
6928;SDS011;3504;52.616;13.238;2023-10-09T15:37:36;15.77;;;12.97;;
6928;SDS011;3504;52.616;13.238;2023-10-09T15:42:36;17.17;;;14.13;;
6928;SDS011;3504;52.616;13.238;2023-10-09T15:47:37;17.07;;;15.20;;
6928;SDS011;3504;52.616;13.238;2023-10-09T15:52:39;17.50;;;15.60;;
6928;SDS011;3504;52.616;13.238;2023-10-09T15:57:40;15.23;;;13.63;;
6928;SDS011;3504;52.616;13.238;2023-10-09T16:02:41;14.57;;;13.07;;
6928;SDS011;3504;52.616;13.238;2023-10-09T16:07:43;14.77;;;12.80;;
6928;SDS011;3504;52.616;13.238;2023-10-09T16:12:43;14.80;;;13.30;;
6928;SDS011;3504;52.616;13.238;2023-10-09T16:17:47;14.87;;;13.03;;
6928;SDS011;3504;52.616;13.238;2023-10-09T16:22:49;16.20;;;14.20;;
6928;SDS011;3504;52.616;13.238;2023-10-09T16:27:50;17.67;;;15.33;;
6928;SDS011;3504;52.616;13.238;2023-10-09T16:32:50;17.77;;;15.23;;
6928;SDS011;3504;52.616;13.238;2023-10-09T16:37:51;17.50;;;14.23;;
6928;SDS011;3504;52.616;13.238;2023-10-09T16:42:52;23.20;;;17.30;;
6928;SDS011;3504;52.616;13.238;2023-10-09T16:47:53;19.07;;;16.47;;
6928;SDS011;3504;52.616;13.238;2023-10-09T16:52:59;19.37;;;16.57;;
6928;SDS011;3504;52.616;13.238;2023-10-09T16:58:00;16.93;;;14.93;;
6928;SDS011;3504;52.616;13.238;2023-10-09T17:03:01;19.40;;;16.13;;
6928;SDS011;3504;52.616;13.238;2023-10-09T17:08:06;23.63;;;18.30;;
6928;SDS011;3504;52.616;13.238;2023-10-09T17:13:09;22.23;;;19.07;;
6928;SDS011;3504;52.616;13.238;2023-10-09T17:18:10;20.80;;;17.57;;
6928;SDS011;3504;52.616;13.238;2023-10-09T17:23:12;23.27;;;18.23;;
6928;SDS011;3504;52.616;13.238;2023-10-09T17:28:13;26.70;;;22.90;;
6928;SDS011;3504;52.616;13.238;2023-10-09T17:33:21;39.07;;;34.93;;
6928;SDS011;3504;52.616;13.238;2023-10-09T17:38:22;26.87;;;22.73;;
6928;SDS011;3504;52.616;13.238;2023-10-09T17:43:23;23.77;;;19.37;;
6928;SDS011;3504;52.616;13.238;2023-10-09T17:48:27;22.60;;;19.57;;
6928;SDS011;3504;52.616;13.238;2023-10-09T17:53:28;25.30;;;19.33;;
6928;SDS011;3504;52.616;13.238;2023-10-09T17:58:29;26.30;;;21.53;;
6928;SDS011;3504;52.616;13.238;2023-10-09T18:03:31;24.73;;;20.57;;
6928;SDS011;3504;52.616;13.238;2023-10-09T18:08:33;25.90;;;20.40;;
6928;SDS011;3504;52.616;13.238;2023-10-09T18:13:36;23.00;;;19.70;;
6928;SDS011;3504;52.616;13.238;2023-10-09T18:18:37;22.80;;;18.93;;
6928;SDS011;3504;52.616;13.238;2023-10-09T18:23:43;24.53;;;19.93;;
6928;SDS011;3504;52.616;13.238;2023-10-09T18:28:47;25.77;;;21.63;;
6928;SDS011;3504;52.616;13.238;2023-10-09T18:33:51;29.07;;;22.87;;
6928;SDS011;3504;52.616;13.238;2023-10-09T18:38:52;28.67;;;22.83;;
6928;SDS011;3504;52.616;13.238;2023-10-09T18:43:53;28.27;;;21.47;;
6928;SDS011;3504;52.616;13.238;2023-10-09T18:48:56;27.63;;;21.83;;
6928;SDS011;3504;52.616;13.238;2023-10-09T18:54:02;24.93;;;20.57;;
6928;SDS011;3504;52.616;13.238;2023-10-09T18:59:05;27.87;;;21.53;;
6928;SDS011;3504;52.616;13.238;2023-10-09T19:04:07;28.03;;;22.10;;
6928;SDS011;3504;52.616;13.238;2023-10-09T19:09:08;25.17;;;20.17;;
6928;SDS011;3504;52.616;13.238;2023-10-09T19:14:08;25.57;;;20.53;;
6928;SDS011;3504;52.616;13.238;2023-10-09T19:19:09;26.50;;;21.30;;
6928;SDS011;3504;52.616;13.238;2023-10-09T19:24:12;29.10;;;20.97;;
6928;SDS011;3504;52.616;13.238;2023-10-09T19:29:13;28.10;;;20.53;;
6928;SDS011;3504;52.616;13.238;2023-10-09T19:34:13;27.23;;;20.23;;
6928;SDS011;3504;52.616;13.238;2023-10-09T19:39:14;26.97;;;20.93;;
6928;SDS011;3504;52.616;13.238;2023-10-09T19:44:17;26.63;;;20.23;;
6928;SDS011;3504;52.616;13.238;2023-10-09T19:49:17;23.53;;;20.07;;
6928;SDS011;3504;52.616;13.238;2023-10-09T19:54:18;22.37;;;18.50;;
6928;SDS011;3504;52.616;13.238;2023-10-09T19:59:21;22.10;;;18.97;;
6928;SDS011;3504;52.616;13.238;2023-10-09T20:04:21;20.10;;;17.17;;
6928;SDS011;3504;52.616;13.238;2023-10-09T20:09:25;20.30;;;16.97;;
6928;SDS011;3504;52.616;13.238;2023-10-09T20:14:25;18.60;;;15.43;;
6928;SDS011;3504;52.616;13.238;2023-10-09T20:19:26;17.70;;;15.37;;
6928;SDS011;3504;52.616;13.238;2023-10-09T20:24:26;18.73;;;14.33;;
6928;SDS011;3504;52.616;13.238;2023-10-09T20:29:29;20.07;;;15.37;;
6928;SDS011;3504;52.616;13.238;2023-10-09T20:34:34;18.03;;;14.67;;
6928;SDS011;3504;52.616;13.238;2023-10-09T20:39:35;20.03;;;15.27;;
6928;SDS011;3504;52.616;13.238;2023-10-09T20:44:38;18.57;;;15.87;;
6928;SDS011;3504;52.616;13.238;2023-10-09T20:49:38;17.10;;;14.33;;
6928;SDS011;3504;52.616;13.238;2023-10-09T20:54:43;18.53;;;14.57;;
6928;SDS011;3504;52.616;13.238;2023-10-09T20:59:50;21.17;;;16.07;;
6928;SDS011;3504;52.616;13.238;2023-10-09T21:04:51;21.00;;;15.50;;
6928;SDS011;3504;52.616;13.238;2023-10-09T21:09:52;20.80;;;16.60;;
6928;SDS011;3504;52.616;13.238;2023-10-09T21:14:53;20.30;;;16.30;;
6928;SDS011;3504;52.616;13.238;2023-10-09T21:19:53;22.03;;;16.23;;
6928;SDS011;3504;52.616;13.238;2023-10-09T21:24:54;23.47;;;16.30;;
6928;SDS011;3504;52.616;13.238;2023-10-09T21:29:55;26.60;;;17.47;;
6928;SDS011;3504;52.616;13.238;2023-10-09T21:34:55;27.57;;;17.30;;
6928;SDS011;3504;52.616;13.238;2023-10-09T21:39:56;24.27;;;16.93;;
6928;SDS011;3504;52.616;13.238;2023-10-09T21:44:59;23.60;;;15.77;;
6928;SDS011;3504;52.616;13.238;2023-10-09T21:49:59;27.30;;;18.40;;
6928;SDS011;3504;52.616;13.238;2023-10-09T21:55:00;27.37;;;18.30;;
6928;SDS011;3504;52.616;13.238;2023-10-09T22:00:02;29.37;;;17.80;;
6928;SDS011;3504;52.616;13.238;2023-10-09T22:05:12;25.90;;;17.43;;
6928;SDS011;3504;52.616;13.238;2023-10-09T22:10:21;29.10;;;18.30;;
6928;SDS011;3504;52.616;13.238;2023-10-09T22:15:21;27.20;;;18.80;;
6928;SDS011;3504;52.616;13.238;2023-10-09T22:20:22;27.67;;;18.23;;
6928;SDS011;3504;52.616;13.238;2023-10-09T22:25:24;26.23;;;18.67;;
6928;SDS011;3504;52.616;13.238;2023-10-09T22:30:25;28.80;;;20.13;;
6928;SDS011;3504;52.616;13.238;2023-10-09T22:35:32;30.30;;;20.23;;
6928;SDS011;3504;52.616;13.238;2023-10-09T22:40:44;33.70;;;21.77;;
6928;SDS011;3504;52.616;13.238;2023-10-09T22:45:48;32.47;;;20.97;;
6928;SDS011;3504;52.616;13.238;2023-10-09T22:50:51;32.47;;;21.93;;
6928;SDS011;3504;52.616;13.238;2023-10-09T22:55:58;31.23;;;21.43;;
6928;SDS011;3504;52.616;13.238;2023-10-09T23:01:01;30.77;;;20.53;;
6928;SDS011;3504;52.616;13.238;2023-10-09T23:06:02;27.53;;;19.10;;
6928;SDS011;3504;52.616;13.238;2023-10-09T23:11:11;27.87;;;18.70;;
6928;SDS011;3504;52.616;13.238;2023-10-09T23:16:14;24.97;;;17.93;;
6928;SDS011;3504;52.616;13.238;2023-10-09T23:21:15;25.30;;;18.60;;
6928;SDS011;3504;52.616;13.238;2023-10-09T23:26:28;24.63;;;18.33;;
6928;SDS011;3504;52.616;13.238;2023-10-09T23:31:34;23.90;;;16.07;;
6928;SDS011;3504;52.616;13.238;2023-10-09T23:36:46;24.20;;;16.57;;
6928;SDS011;3504;52.616;13.238;2023-10-09T23:41:47;22.40;;;16.17;;
6928;SDS011;3504;52.616;13.238;2023-10-09T23:47:02;21.20;;;16.40;;
6928;SDS011;3504;52.616;13.238;2023-10-09T23:52:08;18.70;;;14.97;;
6928;SDS011;3504;52.616;13.238;2023-10-09T23:57:10;21.00;;;15.93;;
